Noriyoshimaru — JD3270 — position and weather

sailwx.info

Track history (hours):
 
Tides and Currents Weather Stations Pressure Air Temp Water Temp Dewpoint Dewpoint Depression Visibility Wind Speed Wind Dir Waves Ship Positions

Noriyoshimaru

Last reported at 2017-Nov-19 17:03 UTC. Time now 2017-Nov-22 02:04 UTC.
Position N 34°38' E 134°60'.

Length 64 m; draft 4 m.

Type: Tanker. MMSI: 431003089.

Date/timePositionNaut miles runAvg speedWind from/ knotsBaromVisibWave heightAir tempDewpointWater temp
2017-Nov-19 17:03N 34°38' E 134°60'1 6.8
2017-Nov-19 16:53N 34°37' E 135°01'2 6.4
2017-Nov-19 16:30N 34°36' E 135°04'4 7.8
2017-Nov-19 16:00N 34°32' E 135°05'17 9.8
2017-Nov-19 14:19N 34°16' E 134°59'3 9.9
2017-Nov-19 14:00N 34°13' E 134°59'510.6
2017-Nov-19 13:29N 34°08' E 135°00'229 7.6
2017-Nov-18 07:13N 35°02' E 139°31'210.4
2017-Nov-18 07:00N 35°03' E 139°33'510.7
2017-Nov-18 06:29N 35°06' E 139°39'510.4
2017-Nov-18 06:00N 35°09' E 139°44'5 9.7
2017-Nov-18 05:30N 35°14' E 139°46'5 9.6
2017-Nov-18 05:00N 35°18' E 139°44'5 9.8
2017-Nov-18 04:30N 35°23' E 139°42'5 9.1
2017-Nov-18 04:00N 35°26' E 139°46'5 9.4
2017-Nov-18 03:30N 35°29' E 139°50'3 0.1
2017-Nov-16 21:12N 35°29' E 139°54'1 2.8
2017-Nov-16 21:00N 35°29' E 139°54'0 0.0
2017-Nov-16 20:30N 35°29' E 139°54'0 0.0
2017-Nov-16 20:00N 35°29' E 139°54'0 0.0
2017-Nov-16 13:08N 35°29' E 139°54'4 6.8
2017-Nov-16 12:31N 35°27' E 139°49'110.2
2017-Nov-16 12:25N 35°26' E 139°48'4 9.8
2017-Nov-16 12:00N 35°23' E 139°45'5 9.5
2017-Nov-16 11:30N 35°18' E 139°45'5 9.2
2017-Nov-16 11:00N 35°14' E 139°47'510.2
2017-Nov-16 10:30N 35°09' E 139°46'510.5
2017-Nov-16 10:00N 35°04' E 139°43'223 6.4
2017-Nov-14 22:57N 34°34' E 135°14'611.6
2017-Nov-14 22:28N 34°35' E 135°07'  
2017-Nov-12 09:30N 34°50' E 139°09'2310.2
2017-Nov-12 07:17N 35°03' E 139°32'310.7
2017-Nov-12 07:00N 35°04' E 139°35'610.7
2017-Nov-12 06:29N 35°07' E 139°41'510.5
2017-Nov-12 06:00N 35°11' E 139°45'510.4
2017-Nov-12 05:30N 35°16' E 139°46'510.9
2017-Nov-12 05:00N 35°21' E 139°42'510.2
2017-Nov-12 04:30N 35°25' E 139°44'611.2
2017-Nov-12 03:59N 35°29' E 139°50'10 0.3
2017-Nov-10 15:46N 35°32' E 140°02'0 0.0
2017-Nov-10 15:16N 35°32' E 140°02'0 0.0
2017-Nov-10 13:06N 35°32' E 140°02'0 0.0
2017-Nov-10 13:00N 35°32' E 140°02'0 0.0
2017-Nov-10 12:23N 35°32' E 140°02'0 0.0
2017-Nov-10 11:55N 35°32' E 140°02'0 0.0
2017-Nov-10 10:45N 35°32' E 140°02'7 1.4
2017-Nov-10 05:51N 35°29' E 139°54'7 6.9
2017-Nov-10 04:47N 35°22' E 139°53'0 0.0
2017-Nov-10 04:20N 35°22' E 139°53'0 0.0
2017-Nov-10 03:58N 35°22' E 139°53'0 0.0
2017-Nov-10 03:30N 35°22' E 139°53'0 0.0
2017-Nov-10 03:00N 35°22' E 139°53'0 0.0
2017-Nov-10 02:30N 35°22' E 139°53'0 0.0
2017-Nov-10 01:59N 35°22' E 139°53'2 4.0
2017-Nov-10 01:28N 35°23' E 139°51'511.5
2017-Nov-10 01:00N 35°28' E 139°54'  
Track history (hours):
 
Tides and Currents Weather Stations Pressure Air Temp Water Temp Dewpoint Dewpoint Depression Visibility Wind Speed Wind Dir Waves Ship Positions

Noriyoshimaru

Last reported at 2017-Nov-19 17:03 UTC. Time now 2017-Nov-22 02:04 UTC.
Position N 34°38' E 134°60'.

Length 64 m; draft 4 m.

Type: Tanker. MMSI: 431003089.

Date/timePositionNaut miles runAvg speedWind from/ knotsBaromVisibWave heightAir tempDewpointWater temp
2017-Nov-19 17:03N 34°38' E 134°60'1 6.8
2017-Nov-19 16:53N 34°37' E 135°01'2 6.4
2017-Nov-19 16:30N 34°36' E 135°04'4 7.8
2017-Nov-19 16:00N 34°32' E 135°05'17 9.8
2017-Nov-19 14:19N 34°16' E 134°59'3 9.9
2017-Nov-19 14:00N 34°13' E 134°59'510.6
2017-Nov-19 13:29N 34°08' E 135°00'229 7.6
2017-Nov-18 07:13N 35°02' E 139°31'210.4
2017-Nov-18 07:00N 35°03' E 139°33'510.7
2017-Nov-18 06:29N 35°06' E 139°39'510.4
2017-Nov-18 06:00N 35°09' E 139°44'5 9.7
2017-Nov-18 05:30N 35°14' E 139°46'5 9.6
2017-Nov-18 05:00N 35°18' E 139°44'5 9.8
2017-Nov-18 04:30N 35°23' E 139°42'5 9.1
2017-Nov-18 04:00N 35°26' E 139°46'5 9.4
2017-Nov-18 03:30N 35°29' E 139°50'3 0.1
2017-Nov-16 21:12N 35°29' E 139°54'1 2.8
2017-Nov-16 21:00N 35°29' E 139°54'0 0.0
2017-Nov-16 20:30N 35°29' E 139°54'0 0.0
2017-Nov-16 20:00N 35°29' E 139°54'0 0.0
2017-Nov-16 13:08N 35°29' E 139°54'4 6.8
2017-Nov-16 12:31N 35°27' E 139°49'110.2
2017-Nov-16 12:25N 35°26' E 139°48'4 9.8
2017-Nov-16 12:00N 35°23' E 139°45'5 9.5
2017-Nov-16 11:30N 35°18' E 139°45'5 9.2
2017-Nov-16 11:00N 35°14' E 139°47'510.2
2017-Nov-16 10:30N 35°09' E 139°46'510.5
2017-Nov-16 10:00N 35°04' E 139°43'223 6.4
2017-Nov-14 22:57N 34°34' E 135°14'611.6
2017-Nov-14 22:28N 34°35' E 135°07'  
2017-Nov-12 09:30N 34°50' E 139°09'2310.2
2017-Nov-12 07:17N 35°03' E 139°32'310.7
2017-Nov-12 07:00N 35°04' E 139°35'610.7
2017-Nov-12 06:29N 35°07' E 139°41'510.5
2017-Nov-12 06:00N 35°11' E 139°45'510.4
2017-Nov-12 05:30N 35°16' E 139°46'510.9
2017-Nov-12 05:00N 35°21' E 139°42'510.2
2017-Nov-12 04:30N 35°25' E 139°44'611.2
2017-Nov-12 03:59N 35°29' E 139°50'10 0.3
2017-Nov-10 15:46N 35°32' E 140°02'0 0.0
2017-Nov-10 15:16N 35°32' E 140°02'0 0.0
2017-Nov-10 13:06N 35°32' E 140°02'0 0.0
2017-Nov-10 13:00N 35°32' E 140°02'0 0.0
2017-Nov-10 12:23N 35°32' E 140°02'0 0.0
2017-Nov-10 11:55N 35°32' E 140°02'0 0.0
2017-Nov-10 10:45N 35°32' E 140°02'7 1.4
2017-Nov-10 05:51N 35°29' E 139°54'7 6.9
2017-Nov-10 04:47N 35°22' E 139°53'0 0.0
2017-Nov-10 04:20N 35°22' E 139°53'0 0.0
2017-Nov-10 03:58N 35°22' E 139°53'0 0.0
2017-Nov-10 03:30N 35°22' E 139°53'0 0.0
2017-Nov-10 03:00N 35°22' E 139°53'0 0.0
2017-Nov-10 02:30N 35°22' E 139°53'0 0.0
2017-Nov-10 01:59N 35°22' E 139°53'2 4.0
2017-Nov-10 01:28N 35°23' E 139°51'511.5
2017-Nov-10 01:00N 35°28' E 139°54'  

Dump ship's entire track history